> <
  • 1
  • 2

Novidades

  • Temos o prazer de lhe apresentar… Ler mais +
  • Está disponível a secção Multimédia no… Ler mais +
  • 1
[source: ADDS]
METAR
LPPR 162200Z 34005KT CAVOK 17/16 Q1021 =
TAF
TAF LPPR 161700Z 1618/1718 35010KT CAVOK BECMG 1621/1624 VRB03KT PROB30 1703/1708 5000 BR NSC BECMG 1709/1712 35013KT =

contactos